sensor_id;sensor_type;location;lat;lon;timestamp;P1;durP1;ratioP1;P2;durP2;ratioP2
10114;SDS011;5097;43.260;27.812;2023-06-04T00:02:02;10.07;;;9.00;;
10114;SDS011;5097;43.260;27.812;2023-06-04T00:04:46;11.63;;;10.43;;
10114;SDS011;5097;43.260;27.812;2023-06-04T00:07:30;11.18;;;9.27;;
10114;SDS011;5097;43.260;27.812;2023-06-04T00:10:14;10.23;;;9.13;;
10114;SDS011;5097;43.260;27.812;2023-06-04T00:12:59;13.18;;;8.95;;
10114;SDS011;5097;43.260;27.812;2023-06-04T00:15:43;11.82;;;10.40;;
10114;SDS011;5097;43.260;27.812;2023-06-04T00:18:27;14.00;;;10.82;;
10114;SDS011;5097;43.260;27.812;2023-06-04T00:21:11;11.57;;;9.27;;
10114;SDS011;5097;43.260;27.812;2023-06-04T00:23:55;13.52;;;10.02;;
10114;SDS011;5097;43.260;27.812;2023-06-04T00:26:39;12.38;;;9.48;;
10114;SDS011;5097;43.260;27.812;2023-06-04T00:29:25;9.35;;;8.52;;
10114;SDS011;5097;43.260;27.812;2023-06-04T00:32:09;8.73;;;7.82;;
10114;SDS011;5097;43.260;27.812;2023-06-04T00:34:53;8.70;;;7.88;;
10114;SDS011;5097;43.260;27.812;2023-06-04T00:37:40;10.18;;;8.40;;
10114;SDS011;5097;43.260;27.812;2023-06-04T00:40:24;8.77;;;7.85;;
10114;SDS011;5097;43.260;27.812;2023-06-04T00:43:08;9.43;;;7.40;;
10114;SDS011;5097;43.260;27.812;2023-06-04T00:45:54;10.95;;;7.72;;
10114;SDS011;5097;43.260;27.812;2023-06-04T00:48:38;12.02;;;8.05;;
10114;SDS011;5097;43.260;27.812;2023-06-04T00:51:24;15.57;;;9.50;;
10114;SDS011;5097;43.260;27.812;2023-06-04T00:54:08;12.70;;;8.75;;
10114;SDS011;5097;43.260;27.812;2023-06-04T00:56:53;8.93;;;6.88;;
10114;SDS011;5097;43.260;27.812;2023-06-04T00:59:38;13.32;;;9.40;;
10114;SDS011;5097;43.260;27.812;2023-06-04T01:02:25;10.63;;;9.00;;
10114;SDS011;5097;43.260;27.812;2023-06-04T01:05:11;12.15;;;7.50;;
10114;SDS011;5097;43.260;27.812;2023-06-04T01:08:03;13.23;;;9.48;;
10114;SDS011;5097;43.260;27.812;2023-06-04T01:10:51;12.90;;;9.73;;
10114;SDS011;5097;43.260;27.812;2023-06-04T01:13:35;12.30;;;8.27;;
10114;SDS011;5097;43.260;27.812;2023-06-04T01:16:19;12.00;;;8.32;;
10114;SDS011;5097;43.260;27.812;2023-06-04T01:19:04;8.82;;;7.43;;
10114;SDS011;5097;43.260;27.812;2023-06-04T01:22:04;11.05;;;7.20;;
10114;SDS011;5097;43.260;27.812;2023-06-04T01:25:04;9.27;;;7.60;;
10114;SDS011;5097;43.260;27.812;2023-06-04T01:27:54;8.05;;;6.70;;
10114;SDS011;5097;43.260;27.812;2023-06-04T01:30:40;7.82;;;6.25;;
10114;SDS011;5097;43.260;27.812;2023-06-04T01:33:28;7.35;;;4.95;;
10114;SDS011;5097;43.260;27.812;2023-06-04T01:36:14;10.00;;;6.47;;
10114;SDS011;5097;43.260;27.812;2023-06-04T01:38:58;9.48;;;6.03;;
10114;SDS011;5097;43.260;27.812;2023-06-04T01:41:43;6.53;;;5.35;;
10114;SDS011;5097;43.260;27.812;2023-06-04T01:44:27;8.55;;;6.60;;
10114;SDS011;5097;43.260;27.812;2023-06-04T01:47:11;7.90;;;5.60;;
10114;SDS011;5097;43.260;27.812;2023-06-04T01:49:56;9.98;;;5.70;;
10114;SDS011;5097;43.260;27.812;2023-06-04T01:52:41;8.40;;;5.13;;
10114;SDS011;5097;43.260;27.812;2023-06-04T01:55:25;8.52;;;5.55;;
10114;SDS011;5097;43.260;27.812;2023-06-04T01:58:12;6.35;;;4.65;;
10114;SDS011;5097;43.260;27.812;2023-06-04T02:00:59;4.90;;;4.35;;
10114;SDS011;5097;43.260;27.812;2023-06-04T02:03:45;7.47;;;4.53;;
10114;SDS011;5097;43.260;27.812;2023-06-04T02:06:29;6.72;;;5.13;;
10114;SDS011;5097;43.260;27.812;2023-06-04T02:09:15;5.50;;;4.97;;
10114;SDS011;5097;43.260;27.812;2023-06-04T02:11:59;7.50;;;4.57;;
10114;SDS011;5097;43.260;27.812;2023-06-04T02:14:43;8.20;;;4.75;;
10114;SDS011;5097;43.260;27.812;2023-06-04T02:17:29;6.13;;;4.25;;
10114;SDS011;5097;43.260;27.812;2023-06-04T02:20:14;5.55;;;4.57;;
10114;SDS011;5097;43.260;27.812;2023-06-04T02:22:58;7.75;;;5.30;;
10114;SDS011;5097;43.260;27.812;2023-06-04T02:25:44;6.03;;;3.78;;
10114;SDS011;5097;43.260;27.812;2023-06-04T02:28:28;5.53;;;4.38;;
10114;SDS011;5097;43.260;27.812;2023-06-04T02:31:12;9.27;;;4.38;;
10114;SDS011;5097;43.260;27.812;2023-06-04T02:33:56;5.13;;;4.47;;
10114;SDS011;5097;43.260;27.812;2023-06-04T02:36:40;5.13;;;4.63;;
10114;SDS011;5097;43.260;27.812;2023-06-04T02:39:30;8.73;;;4.18;;
10114;SDS011;5097;43.260;27.812;2023-06-04T02:42:16;5.32;;;3.65;;
10114;SDS011;5097;43.260;27.812;2023-06-04T02:45:00;4.70;;;4.13;;
10114;SDS011;5097;43.260;27.812;2023-06-04T02:47:45;4.40;;;4.00;;
10114;SDS011;5097;43.260;27.812;2023-06-04T02:50:29;5.07;;;4.30;;
10114;SDS011;5097;43.260;27.812;2023-06-04T02:53:13;7.60;;;5.30;;
10114;SDS011;5097;43.260;27.812;2023-06-04T02:55:57;9.68;;;6.35;;
10114;SDS011;5097;43.260;27.812;2023-06-04T02:58:49;5.93;;;4.28;;
10114;SDS011;5097;43.260;27.812;2023-06-04T03:01:35;5.93;;;4.70;;
10114;SDS011;5097;43.260;27.812;2023-06-04T03:04:19;6.75;;;5.38;;
10114;SDS011;5097;43.260;27.812;2023-06-04T03:07:03;7.72;;;6.07;;
10114;SDS011;5097;43.260;27.812;2023-06-04T03:09:50;6.57;;;5.22;;
10114;SDS011;5097;43.260;27.812;2023-06-04T03:12:34;6.22;;;5.10;;
10114;SDS011;5097;43.260;27.812;2023-06-04T03:15:20;8.82;;;5.13;;
10114;SDS011;5097;43.260;27.812;2023-06-04T03:18:04;7.35;;;5.15;;
10114;SDS011;5097;43.260;27.812;2023-06-04T03:20:48;6.63;;;5.10;;
10114;SDS011;5097;43.260;27.812;2023-06-04T03:23:35;8.30;;;6.05;;
10114;SDS011;5097;43.260;27.812;2023-06-04T03:26:20;6.50;;;5.32;;
10114;SDS011;5097;43.260;27.812;2023-06-04T03:29:05;6.93;;;5.43;;
10114;SDS011;5097;43.260;27.812;2023-06-04T03:31:52;13.77;;;5.70;;
10114;SDS011;5097;43.260;27.812;2023-06-04T03:34:36;8.07;;;4.82;;
10114;SDS011;5097;43.260;27.812;2023-06-04T03:37:20;7.80;;;6.57;;
10114;SDS011;5097;43.260;27.812;2023-06-04T03:40:05;12.55;;;5.35;;
10114;SDS011;5097;43.260;27.812;2023-06-04T03:42:53;11.27;;;6.13;;
10114;SDS011;5097;43.260;27.812;2023-06-04T03:45:41;8.52;;;5.65;;
10114;SDS011;5097;43.260;27.812;2023-06-04T03:48:27;9.10;;;5.45;;
10114;SDS011;5097;43.260;27.812;2023-06-04T03:51:11;8.07;;;6.25;;
10114;SDS011;5097;43.260;27.812;2023-06-04T03:53:55;7.43;;;5.47;;
10114;SDS011;5097;43.260;27.812;2023-06-04T03:56:41;10.10;;;5.35;;
10114;SDS011;5097;43.260;27.812;2023-06-04T03:59:26;5.57;;;4.65;;
10114;SDS011;5097;43.260;27.812;2023-06-04T04:02:10;9.15;;;5.63;;
10114;SDS011;5097;43.260;27.812;2023-06-04T04:04:56;7.82;;;5.60;;
10114;SDS011;5097;43.260;27.812;2023-06-04T04:07:40;7.97;;;5.20;;
10114;SDS011;5097;43.260;27.812;2023-06-04T04:10:25;7.80;;;5.28;;
10114;SDS011;5097;43.260;27.812;2023-06-04T04:13:09;5.57;;;4.63;;
10114;SDS011;5097;43.260;27.812;2023-06-04T04:15:55;7.70;;;4.38;;
10114;SDS011;5097;43.260;27.812;2023-06-04T04:18:40;6.55;;;3.78;;
10114;SDS011;5097;43.260;27.812;2023-06-04T04:21:27;5.43;;;4.93;;
10114;SDS011;5097;43.260;27.812;2023-06-04T04:24:11;4.95;;;4.45;;
10114;SDS011;5097;43.260;27.812;2023-06-04T04:27:06;7.90;;;5.70;;
10114;SDS011;5097;43.260;27.812;2023-06-04T04:29:54;5.80;;;5.28;;
10114;SDS011;5097;43.260;27.812;2023-06-04T04:32:46;5.90;;;4.20;;
10114;SDS011;5097;43.260;27.812;2023-06-04T04:35:39;7.63;;;5.35;;
10114;SDS011;5097;43.260;27.812;2023-06-04T04:38:26;8.85;;;4.90;;
10114;SDS011;5097;43.260;27.812;2023-06-04T04:41:16;9.93;;;5.15;;
10114;SDS011;5097;43.260;27.812;2023-06-04T04:44:02;9.20;;;4.57;;
10114;SDS011;5097;43.260;27.812;2023-06-04T04:46:47;7.30;;;4.78;;
10114;SDS011;5097;43.260;27.812;2023-06-04T04:49:32;13.23;;;5.75;;
10114;SDS011;5097;43.260;27.812;2023-06-04T04:52:16;9.70;;;5.13;;
10114;SDS011;5097;43.260;27.812;2023-06-04T04:55:03;10.10;;;4.57;;
10114;SDS011;5097;43.260;27.812;2023-06-04T04:57:49;6.38;;;4.97;;
10114;SDS011;5097;43.260;27.812;2023-06-04T05:00:34;9.25;;;4.85;;
10114;SDS011;5097;43.260;27.812;2023-06-04T05:03:18;11.75;;;5.20;;
10114;SDS011;5097;43.260;27.812;2023-06-04T05:06:02;7.00;;;4.40;;
10114;SDS011;5097;43.260;27.812;2023-06-04T05:08:47;7.20;;;4.53;;
10114;SDS011;5097;43.260;27.812;2023-06-04T05:11:33;6.47;;;4.40;;
10114;SDS011;5097;43.260;27.812;2023-06-04T05:14:19;6.78;;;5.05;;
10114;SDS011;5097;43.260;27.812;2023-06-04T05:17:03;3.58;;;3.17;;
10114;SDS011;5097;43.260;27.812;2023-06-04T05:19:50;5.90;;;3.97;;
10114;SDS011;5097;43.260;27.812;2023-06-04T05:22:35;5.97;;;4.00;;
10114;SDS011;5097;43.260;27.812;2023-06-04T05:25:20;5.88;;;4.50;;
10114;SDS011;5097;43.260;27.812;2023-06-04T05:28:05;8.60;;;4.18;;
10114;SDS011;5097;43.260;27.812;2023-06-04T05:30:50;6.15;;;4.28;;
10114;SDS011;5097;43.260;27.812;2023-06-04T05:33:35;7.95;;;3.45;;
10114;SDS011;5097;43.260;27.812;2023-06-04T05:36:24;5.07;;;3.97;;
10114;SDS011;5097;43.260;27.812;2023-06-04T05:39:12;8.25;;;4.15;;
10114;SDS011;5097;43.260;27.812;2023-06-04T05:42:08;8.02;;;5.32;;
10114;SDS011;5097;43.260;27.812;2023-06-04T05:44:55;5.88;;;2.70;;
10114;SDS011;5097;43.260;27.812;2023-06-04T05:47:39;4.93;;;3.72;;
10114;SDS011;5097;43.260;27.812;2023-06-04T05:50:23;7.30;;;4.50;;
10114;SDS011;5097;43.260;27.812;2023-06-04T05:53:08;7.63;;;4.35;;
10114;SDS011;5097;43.260;27.812;2023-06-04T05:55:52;7.65;;;4.22;;
10114;SDS011;5097;43.260;27.812;2023-06-04T05:58:36;5.40;;;4.07;;
10114;SDS011;5097;43.260;27.812;2023-06-04T06:01:23;6.82;;;3.95;;
10114;SDS011;5097;43.260;27.812;2023-06-04T06:04:08;4.78;;;3.00;;
10114;SDS011;5097;43.260;27.812;2023-06-04T06:06:53;4.70;;;3.85;;
10114;SDS011;5097;43.260;27.812;2023-06-04T06:09:37;5.90;;;4.80;;
10114;SDS011;5097;43.260;27.812;2023-06-04T06:12:21;6.78;;;3.92;;
10114;SDS011;5097;43.260;27.812;2023-06-04T06:15:06;6.90;;;3.33;;
10114;SDS011;5097;43.260;27.812;2023-06-04T06:17:52;4.47;;;2.58;;
10114;SDS011;5097;43.260;27.812;2023-06-04T06:20:36;5.95;;;3.95;;
10114;SDS011;5097;43.260;27.812;2023-06-04T06:23:20;7.93;;;3.85;;
10114;SDS011;5097;43.260;27.812;2023-06-04T06:26:07;6.82;;;3.58;;
10114;SDS011;5097;43.260;27.812;2023-06-04T06:29:00;3.42;;;2.60;;
10114;SDS011;5097;43.260;27.812;2023-06-04T06:31:45;6.40;;;2.83;;
10114;SDS011;5097;43.260;27.812;2023-06-04T06:34:31;8.15;;;5.80;;
10114;SDS011;5097;43.260;27.812;2023-06-04T06:37:15;4.07;;;2.60;;
10114;SDS011;5097;43.260;27.812;2023-06-04T06:39:59;6.00;;;2.85;;
10114;SDS011;5097;43.260;27.812;2023-06-04T06:42:47;5.57;;;3.65;;
10114;SDS011;5097;43.260;27.812;2023-06-04T06:45:32;3.30;;;3.00;;
10114;SDS011;5097;43.260;27.812;2023-06-04T06:48:19;4.75;;;2.97;;
10114;SDS011;5097;43.260;27.812;2023-06-04T06:51:04;6.10;;;3.00;;
10114;SDS011;5097;43.260;27.812;2023-06-04T06:53:48;3.67;;;2.35;;
10114;SDS011;5097;43.260;27.812;2023-06-04T06:56:32;5.90;;;2.83;;
10114;SDS011;5097;43.260;27.812;2023-06-04T06:59:16;5.40;;;2.70;;
10114;SDS011;5097;43.260;27.812;2023-06-04T07:02:00;5.50;;;3.50;;
10114;SDS011;5097;43.260;27.812;2023-06-04T07:04:44;2.88;;;2.17;;
10114;SDS011;5097;43.260;27.812;2023-06-04T07:07:30;5.53;;;2.75;;
10114;SDS011;5097;43.260;27.812;2023-06-04T07:10:14;6.43;;;3.20;;
10114;SDS011;5097;43.260;27.812;2023-06-04T07:12:58;6.07;;;2.60;;
10114;SDS011;5097;43.260;27.812;2023-06-04T07:15:42;8.77;;;3.78;;
10114;SDS011;5097;43.260;27.812;2023-06-04T07:18:26;6.38;;;3.35;;
10114;SDS011;5097;43.260;27.812;2023-06-04T07:21:10;9.98;;;5.60;;
10114;SDS011;5097;43.260;27.812;2023-06-04T07:23:56;5.30;;;2.53;;
10114;SDS011;5097;43.260;27.812;2023-06-04T07:26:40;7.93;;;3.33;;
10114;SDS011;5097;43.260;27.812;2023-06-04T07:29:24;4.88;;;2.15;;
10114;SDS011;5097;43.260;27.812;2023-06-04T07:32:08;5.03;;;2.67;;
10114;SDS011;5097;43.260;27.812;2023-06-04T07:34:53;8.02;;;3.03;;
10114;SDS011;5097;43.260;27.812;2023-06-04T07:37:37;5.20;;;3.10;;
10114;SDS011;5097;43.260;27.812;2023-06-04T07:40:23;5.22;;;3.00;;
10114;SDS011;5097;43.260;27.812;2023-06-04T07:43:07;7.15;;;4.72;;
10114;SDS011;5097;43.260;27.812;2023-06-04T07:45:51;5.07;;;3.42;;
10114;SDS011;5097;43.260;27.812;2023-06-04T07:48:35;5.90;;;3.30;;
10114;SDS011;5097;43.260;27.812;2023-06-04T07:51:19;8.95;;;4.40;;
10114;SDS011;5097;43.260;27.812;2023-06-04T07:54:05;6.00;;;2.55;;
10114;SDS011;5097;43.260;27.812;2023-06-04T07:56:50;3.85;;;2.40;;
10114;SDS011;5097;43.260;27.812;2023-06-04T07:59:38;3.40;;;2.60;;
10114;SDS011;5097;43.260;27.812;2023-06-04T08:02:22;4.97;;;2.90;;
10114;SDS011;5097;43.260;27.812;2023-06-04T08:05:07;2.90;;;2.42;;
10114;SDS011;5097;43.260;27.812;2023-06-04T08:07:51;5.18;;;2.53;;
10114;SDS011;5097;43.260;27.812;2023-06-04T08:10:35;6.93;;;3.33;;
10114;SDS011;5097;43.260;27.812;2023-06-04T08:13:21;5.10;;;2.40;;
10114;SDS011;5097;43.260;27.812;2023-06-04T08:16:05;5.82;;;2.97;;
10114;SDS011;5097;43.260;27.812;2023-06-04T08:19:03;3.72;;;3.00;;
10114;SDS011;5097;43.260;27.812;2023-06-04T08:21:57;11.68;;;4.25;;
10114;SDS011;5097;43.260;27.812;2023-06-04T08:25:01;4.57;;;2.83;;
10114;SDS011;5097;43.260;27.812;2023-06-04T08:28:05;3.28;;;2.97;;
10114;SDS011;5097;43.260;27.812;2023-06-04T08:31:10;9.15;;;5.18;;
10114;SDS011;5097;43.260;27.812;2023-06-04T08:34:08;6.25;;;3.90;;
10114;SDS011;5097;43.260;27.812;2023-06-04T08:37:02;6.28;;;4.20;;
10114;SDS011;5097;43.260;27.812;2023-06-04T08:39:46;11.95;;;5.40;;
10114;SDS011;5097;43.260;27.812;2023-06-04T08:42:30;4.90;;;3.25;;
10114;SDS011;5097;43.260;27.812;2023-06-04T08:45:17;7.43;;;2.95;;
10114;SDS011;5097;43.260;27.812;2023-06-04T08:48:05;4.35;;;2.47;;
10114;SDS011;5097;43.260;27.812;2023-06-04T08:50:53;6.35;;;3.90;;
10114;SDS011;5097;43.260;27.812;2023-06-04T08:53:40;4.78;;;2.90;;
10114;SDS011;5097;43.260;27.812;2023-06-04T08:56:25;5.93;;;2.70;;
10114;SDS011;5097;43.260;27.812;2023-06-04T08:59:10;5.55;;;2.75;;
10114;SDS011;5097;43.260;27.812;2023-06-04T09:01:56;4.65;;;2.70;;
10114;SDS011;5097;43.260;27.812;2023-06-04T09:04:43;8.07;;;5.70;;
10114;SDS011;5097;43.260;27.812;2023-06-04T09:07:27;4.72;;;2.75;;
10114;SDS011;5097;43.260;27.812;2023-06-04T09:10:15;4.65;;;3.60;;
10114;SDS011;5097;43.260;27.812;2023-06-04T09:13:02;5.93;;;2.65;;
10114;SDS011;5097;43.260;27.812;2023-06-04T09:15:58;5.88;;;2.92;;
10114;SDS011;5097;43.260;27.812;2023-06-04T09:18:43;6.43;;;2.60;;
10114;SDS011;5097;43.260;27.812;2023-06-04T09:21:30;5.47;;;3.08;;
10114;SDS011;5097;43.260;27.812;2023-06-04T09:24:14;3.88;;;3.13;;
10114;SDS011;5097;43.260;27.812;2023-06-04T09:26:58;3.90;;;3.10;;
10114;SDS011;5097;43.260;27.812;2023-06-04T09:29:54;5.18;;;3.10;;
10114;SDS011;5097;43.260;27.812;2023-06-04T09:32:38;2.42;;;2.22;;
10114;SDS011;5097;43.260;27.812;2023-06-04T09:35:22;2.90;;;2.50;;
10114;SDS011;5097;43.260;27.812;2023-06-04T09:38:08;2.78;;;2.40;;
10114;SDS011;5097;43.260;27.812;2023-06-04T09:40:53;3.65;;;3.25;;
10114;SDS011;5097;43.260;27.812;2023-06-04T09:43:37;4.55;;;2.58;;
10114;SDS011;5097;43.260;27.812;2023-06-04T09:46:21;3.97;;;2.63;;
10114;SDS011;5097;43.260;27.812;2023-06-04T09:49:05;5.93;;;3.22;;
10114;SDS011;5097;43.260;27.812;2023-06-04T09:51:49;4.45;;;2.08;;
10114;SDS011;5097;43.260;27.812;2023-06-04T09:54:36;2.60;;;2.40;;
10114;SDS011;5097;43.260;27.812;2023-06-04T09:57:20;4.22;;;2.70;;
10114;SDS011;5097;43.260;27.812;2023-06-04T10:00:05;3.97;;;3.42;;
10114;SDS011;5097;43.260;27.812;2023-06-04T10:02:55;4.63;;;2.80;;
10114;SDS011;5097;43.260;27.812;2023-06-04T10:05:44;3.70;;;2.03;;
10114;SDS011;5097;43.260;27.812;2023-06-04T10:08:29;8.02;;;2.17;;
10114;SDS011;5097;43.260;27.812;2023-06-04T10:11:16;6.97;;;2.40;;
10114;SDS011;5097;43.260;27.812;2023-06-04T10:14:02;3.50;;;2.10;;
10114;SDS011;5097;43.260;27.812;2023-06-04T10:16:51;2.47;;;2.28;;
10114;SDS011;5097;43.260;27.812;2023-06-04T10:19:36;7.10;;;2.70;;
10114;SDS011;5097;43.260;27.812;2023-06-04T10:22:23;7.03;;;1.90;;
10114;SDS011;5097;43.260;27.812;2023-06-04T10:25:08;2.55;;;2.00;;
10114;SDS011;5097;43.260;27.812;2023-06-04T10:27:54;3.70;;;2.40;;
10114;SDS011;5097;43.260;27.812;2023-06-04T10:30:39;4.40;;;2.20;;
10114;SDS011;5097;43.260;27.812;2023-06-04T10:33:23;2.75;;;2.10;;
10114;SDS011;5097;43.260;27.812;2023-06-04T10:36:17;3.95;;;2.85;;
10114;SDS011;5097;43.260;27.812;2023-06-04T10:39:02;2.78;;;2.35;;
10114;SDS011;5097;43.260;27.812;2023-06-04T10:41:56;7.05;;;2.80;;
10114;SDS011;5097;43.260;27.812;2023-06-04T10:44:45;8.73;;;2.30;;
10114;SDS011;5097;43.260;27.812;2023-06-04T10:47:31;3.65;;;2.05;;
10114;SDS011;5097;43.260;27.812;2023-06-04T10:50:19;4.38;;;2.47;;
10114;SDS011;5097;43.260;27.812;2023-06-04T10:53:04;4.97;;;2.83;;
10114;SDS011;5097;43.260;27.812;2023-06-04T10:55:48;6.63;;;3.30;;
10114;SDS011;5097;43.260;27.812;2023-06-04T10:58:33;2.72;;;1.90;;
10114;SDS011;5097;43.260;27.812;2023-06-04T11:01:23;5.07;;;2.63;;
10114;SDS011;5097;43.260;27.812;2023-06-04T11:04:17;4.25;;;2.35;;
10114;SDS011;5097;43.260;27.812;2023-06-04T11:07:03;4.43;;;2.42;;
10114;SDS011;5097;43.260;27.812;2023-06-04T11:09:51;7.22;;;2.63;;
10114;SDS011;5097;43.260;27.812;2023-06-04T11:12:40;4.15;;;2.38;;
10114;SDS011;5097;43.260;27.812;2023-06-04T11:15:25;3.17;;;2.45;;
10114;SDS011;5097;43.260;27.812;2023-06-04T11:18:14;4.75;;;2.78;;
10114;SDS011;5097;43.260;27.812;2023-06-04T11:20:59;6.43;;;2.72;;
10114;SDS011;5097;43.260;27.812;2023-06-04T11:23:44;5.10;;;2.40;;
10114;SDS011;5097;43.260;27.812;2023-06-04T11:26:31;4.88;;;2.08;;
10114;SDS011;5097;43.260;27.812;2023-06-04T11:29:18;6.95;;;2.78;;
10114;SDS011;5097;43.260;27.812;2023-06-04T11:32:02;4.60;;;2.20;;
10114;SDS011;5097;43.260;27.812;2023-06-04T11:34:48;4.63;;;2.03;;
10114;SDS011;5097;43.260;27.812;2023-06-04T11:37:32;5.25;;;2.40;;
10114;SDS011;5097;43.260;27.812;2023-06-04T11:40:16;4.25;;;2.17;;
10114;SDS011;5097;43.260;27.812;2023-06-04T11:43:01;5.88;;;2.35;;
10114;SDS011;5097;43.260;27.812;2023-06-04T11:45:45;5.03;;;2.55;;
10114;SDS011;5097;43.260;27.812;2023-06-04T11:48:29;5.15;;;2.15;;
10114;SDS011;5097;43.260;27.812;2023-06-04T11:51:15;2.53;;;2.33;;
10114;SDS011;5097;43.260;27.812;2023-06-04T11:53:59;5.75;;;2.30;;
10114;SDS011;5097;43.260;27.812;2023-06-04T11:56:43;3.72;;;2.20;;
10114;SDS011;5097;43.260;27.812;2023-06-04T11:59:28;5.55;;;2.50;;
10114;SDS011;5097;43.260;27.812;2023-06-04T12:02:12;4.30;;;2.20;;
10114;SDS011;5097;43.260;27.812;2023-06-04T12:04:56;3.47;;;1.92;;
10114;SDS011;5097;43.260;27.812;2023-06-04T12:07:41;6.32;;;3.08;;
10114;SDS011;5097;43.260;27.812;2023-06-04T12:10:25;4.13;;;1.90;;
10114;SDS011;5097;43.260;27.812;2023-06-04T12:13:11;4.22;;;2.13;;
10114;SDS011;5097;43.260;27.812;2023-06-04T12:15:55;4.32;;;2.20;;
10114;SDS011;5097;43.260;27.812;2023-06-04T12:18:38;5.38;;;2.08;;
10114;SDS011;5097;43.260;27.812;2023-06-04T12:21:23;4.68;;;2.22;;
10114;SDS011;5097;43.260;27.812;2023-06-04T12:24:11;5.45;;;2.05;;
10114;SDS011;5097;43.260;27.812;2023-06-04T12:27:03;3.05;;;2.20;;
10114;SDS011;5097;43.260;27.812;2023-06-04T12:29:54;3.35;;;1.98;;
10114;SDS011;5097;43.260;27.812;2023-06-04T12:32:39;4.18;;;2.08;;
10114;SDS011;5097;43.260;27.812;2023-06-04T12:35:24;7.85;;;2.10;;
10114;SDS011;5097;43.260;27.812;2023-06-04T12:38:08;4.43;;;1.90;;
10114;SDS011;5097;43.260;27.812;2023-06-04T12:40:54;5.22;;;2.55;;
10114;SDS011;5097;43.260;27.812;2023-06-04T12:43:38;5.10;;;1.85;;
10114;SDS011;5097;43.260;27.812;2023-06-04T12:46:22;6.75;;;2.30;;
10114;SDS011;5097;43.260;27.812;2023-06-04T12:49:06;3.72;;;2.38;;
10114;SDS011;5097;43.260;27.812;2023-06-04T12:51:50;8.57;;;2.60;;
10114;SDS011;5097;43.260;27.812;2023-06-04T12:54:34;5.65;;;2.53;;
10114;SDS011;5097;43.260;27.812;2023-06-04T12:57:20;5.03;;;2.33;;
10114;SDS011;5097;43.260;27.812;2023-06-04T13:00:04;4.22;;;2.15;;
10114;SDS011;5097;43.260;27.812;2023-06-04T13:02:50;3.80;;;2.10;;
10114;SDS011;5097;43.260;27.812;2023-06-04T13:05:35;4.10;;;2.40;;
10114;SDS011;5097;43.260;27.812;2023-06-04T13:08:19;6.03;;;3.00;;
10114;SDS011;5097;43.260;27.812;2023-06-04T13:11:04;4.43;;;2.50;;
10114;SDS011;5097;43.260;27.812;2023-06-04T13:13:50;6.65;;;2.85;;
10114;SDS011;5097;43.260;27.812;2023-06-04T13:16:34;4.85;;;2.15;;
10114;SDS011;5097;43.260;27.812;2023-06-04T13:19:18;2.53;;;1.85;;
10114;SDS011;5097;43.260;27.812;2023-06-04T13:22:03;6.93;;;3.13;;
10114;SDS011;5097;43.260;27.812;2023-06-04T13:24:47;5.13;;;2.97;;
10114;SDS011;5097;43.260;27.812;2023-06-04T13:27:31;4.45;;;2.20;;
10114;SDS011;5097;43.260;27.812;2023-06-04T13:30:16;3.63;;;2.17;;
10114;SDS011;5097;43.260;27.812;2023-06-04T13:33:00;3.58;;;2.45;;
10114;SDS011;5097;43.260;27.812;2023-06-04T13:35:44;4.15;;;2.15;;
10114;SDS011;5097;43.260;27.812;2023-06-04T13:38:29;3.97;;;2.38;;
10114;SDS011;5097;43.260;27.812;2023-06-04T13:41:13;2.95;;;2.30;;
10114;SDS011;5097;43.260;27.812;2023-06-04T13:43:56;8.98;;;2.58;;
10114;SDS011;5097;43.260;27.812;2023-06-04T13:46:42;4.82;;;2.15;;
10114;SDS011;5097;43.260;27.812;2023-06-04T13:49:26;5.15;;;2.33;;
10114;SDS011;5097;43.260;27.812;2023-06-04T13:52:10;6.90;;;2.97;;
10114;SDS011;5097;43.260;27.812;2023-06-04T13:54:54;5.20;;;2.25;;
10114;SDS011;5097;43.260;27.812;2023-06-04T13:57:38;6.10;;;2.33;;
10114;SDS011;5097;43.260;27.812;2023-06-04T14:00:22;3.83;;;2.30;;
10114;SDS011;5097;43.260;27.812;2023-06-04T14:03:07;7.75;;;4.20;;
10114;SDS011;5097;43.260;27.812;2023-06-04T14:05:51;5.47;;;2.20;;
10114;SDS011;5097;43.260;27.812;2023-06-04T14:08:35;3.47;;;2.00;;
10114;SDS011;5097;43.260;27.812;2023-06-04T14:11:19;6.82;;;2.55;;
10114;SDS011;5097;43.260;27.812;2023-06-04T14:14:03;3.17;;;1.98;;
10114;SDS011;5097;43.260;27.812;2023-06-04T14:16:47;6.05;;;2.03;;
10114;SDS011;5097;43.260;27.812;2023-06-04T14:19:33;4.28;;;2.70;;
10114;SDS011;5097;43.260;27.812;2023-06-04T14:22:17;9.30;;;2.63;;
10114;SDS011;5097;43.260;27.812;2023-06-04T14:25:01;4.50;;;2.30;;
10114;SDS011;5097;43.260;27.812;2023-06-04T14:27:46;6.97;;;2.63;;
10114;SDS011;5097;43.260;27.812;2023-06-04T14:30:30;5.47;;;2.97;;
10114;SDS011;5097;43.260;27.812;2023-06-04T14:33:14;2.53;;;2.03;;
10114;SDS011;5097;43.260;27.812;2023-06-04T14:35:59;4.18;;;2.28;;
10114;SDS011;5097;43.260;27.812;2023-06-04T14:38:43;6.10;;;3.47;;
10114;SDS011;5097;43.260;27.812;2023-06-04T14:41:28;5.55;;;2.00;;
10114;SDS011;5097;43.260;27.812;2023-06-04T14:44:12;4.32;;;2.28;;
10114;SDS011;5097;43.260;27.812;2023-06-04T14:46:56;4.25;;;2.30;;
10114;SDS011;5097;43.260;27.812;2023-06-04T14:49:41;3.15;;;1.58;;
10114;SDS011;5097;43.260;27.812;2023-06-04T14:52:26;3.38;;;2.30;;
10114;SDS011;5097;43.260;27.812;2023-06-04T14:55:10;4.47;;;2.22;;
10114;SDS011;5097;43.260;27.812;2023-06-04T14:57:54;2.97;;;2.25;;
10114;SDS011;5097;43.260;27.812;2023-06-04T15:00:38;5.53;;;2.67;;
10114;SDS011;5097;43.260;27.812;2023-06-04T15:03:23;7.65;;;3.53;;
10114;SDS011;5097;43.260;27.812;2023-06-04T15:06:07;3.78;;;2.60;;
10114;SDS011;5097;43.260;27.812;2023-06-04T15:09:02;6.03;;;2.20;;
10114;SDS011;5097;43.260;27.812;2023-06-04T15:11:47;8.05;;;2.50;;
10114;SDS011;5097;43.260;27.812;2023-06-04T15:14:31;4.32;;;2.65;;
10114;SDS011;5097;43.260;27.812;2023-06-04T15:17:15;4.40;;;2.10;;
10114;SDS011;5097;43.260;27.812;2023-06-04T15:19:59;4.57;;;2.20;;
10114;SDS011;5097;43.260;27.812;2023-06-04T15:22:44;9.82;;;2.95;;
10114;SDS011;5097;43.260;27.812;2023-06-04T15:25:30;6.63;;;3.15;;
10114;SDS011;5097;43.260;27.812;2023-06-04T15:28:14;7.93;;;4.10;;
10114;SDS011;5097;43.260;27.812;2023-06-04T15:30:58;3.45;;;2.60;;
10114;SDS011;5097;43.260;27.812;2023-06-04T15:33:42;3.15;;;2.55;;
10114;SDS011;5097;43.260;27.812;2023-06-04T15:36:26;5.90;;;2.60;;
10114;SDS011;5097;43.260;27.812;2023-06-04T15:39:11;4.72;;;2.55;;
10114;SDS011;5097;43.260;27.812;2023-06-04T15:41:56;10.32;;;3.50;;
10114;SDS011;5097;43.260;27.812;2023-06-04T15:44:40;5.80;;;2.10;;
10114;SDS011;5097;43.260;27.812;2023-06-04T15:47:24;4.18;;;1.95;;
10114;SDS011;5097;43.260;27.812;2023-06-04T15:50:08;8.40;;;4.15;;
10114;SDS011;5097;43.260;27.812;2023-06-04T15:52:53;7.90;;;3.28;;
10114;SDS011;5097;43.260;27.812;2023-06-04T15:55:37;5.68;;;3.33;;
10114;SDS011;5097;43.260;27.812;2023-06-04T15:58:23;6.53;;;3.28;;
10114;SDS011;5097;43.260;27.812;2023-06-04T16:01:07;3.67;;;2.20;;
10114;SDS011;5097;43.260;27.812;2023-06-04T16:03:51;9.07;;;2.80;;
10114;SDS011;5097;43.260;27.812;2023-06-04T16:06:35;4.28;;;2.65;;
10114;SDS011;5097;43.260;27.812;2023-06-04T16:09:20;9.35;;;3.67;;
10114;SDS011;5097;43.260;27.812;2023-06-04T16:12:04;5.43;;;2.92;;
10114;SDS011;5097;43.260;27.812;2023-06-04T16:14:49;6.28;;;3.13;;
10114;SDS011;5097;43.260;27.812;2023-06-04T16:17:33;11.45;;;7.88;;
10114;SDS011;5097;43.260;27.812;2023-06-04T16:20:17;8.32;;;3.47;;
10114;SDS011;5097;43.260;27.812;2023-06-04T16:23:01;4.18;;;3.60;;
10114;SDS011;5097;43.260;27.812;2023-06-04T16:25:46;7.05;;;4.07;;
10114;SDS011;5097;43.260;27.812;2023-06-04T16:28:30;3.50;;;2.10;;
10114;SDS011;5097;43.260;27.812;2023-06-04T16:31:15;9.35;;;5.20;;
10114;SDS011;5097;43.260;27.812;2023-06-04T16:33:59;7.07;;;4.18;;
10114;SDS011;5097;43.260;27.812;2023-06-04T16:36:43;6.22;;;2.80;;